sensor_id;sensor_type;location;lat;lon;timestamp;P1;durP1;ratioP1;P2;durP2;ratioP2
29838;SDS011;18669;53.356;-1.464;2023-04-19T00:00:20;27.50;;;10.98;;
29838;SDS011;18669;53.356;-1.464;2023-04-19T00:03:05;20.90;;;11.05;;
29838;SDS011;18669;53.356;-1.464;2023-04-19T00:05:50;25.65;;;10.32;;
29838;SDS011;18669;53.356;-1.464;2023-04-19T00:08:37;17.77;;;10.20;;
29838;SDS011;18669;53.356;-1.464;2023-04-19T00:11:23;24.85;;;10.25;;
29838;SDS011;18669;53.356;-1.464;2023-04-19T00:14:07;19.90;;;10.02;;
29838;SDS011;18669;53.356;-1.464;2023-04-19T00:16:52;23.92;;;10.43;;
29838;SDS011;18669;53.356;-1.464;2023-04-19T00:19:37;24.00;;;10.30;;
29838;SDS011;18669;53.356;-1.464;2023-04-19T00:22:22;19.23;;;9.85;;
29838;SDS011;18669;53.356;-1.464;2023-04-19T00:25:07;17.17;;;9.63;;
29838;SDS011;18669;53.356;-1.464;2023-04-19T00:27:52;22.95;;;9.77;;
29838;SDS011;18669;53.356;-1.464;2023-04-19T00:30:37;20.50;;;9.80;;
29838;SDS011;18669;53.356;-1.464;2023-04-19T00:33:22;26.25;;;9.60;;
29838;SDS011;18669;53.356;-1.464;2023-04-19T00:36:07;18.67;;;9.45;;
29838;SDS011;18669;53.356;-1.464;2023-04-19T00:38:53;15.95;;;8.55;;
29838;SDS011;18669;53.356;-1.464;2023-04-19T00:41:38;18.80;;;8.27;;
29838;SDS011;18669;53.356;-1.464;2023-04-19T00:44:23;21.35;;;8.65;;
29838;SDS011;18669;53.356;-1.464;2023-04-19T00:47:08;16.48;;;8.23;;
29838;SDS011;18669;53.356;-1.464;2023-04-19T00:49:53;20.92;;;8.75;;
29838;SDS011;18669;53.356;-1.464;2023-04-19T00:52:39;21.15;;;8.38;;
29838;SDS011;18669;53.356;-1.464;2023-04-19T00:55:24;18.88;;;9.25;;
29838;SDS011;18669;53.356;-1.464;2023-04-19T00:58:08;20.00;;;8.30;;
29838;SDS011;18669;53.356;-1.464;2023-04-19T01:00:53;12.65;;;7.35;;
29838;SDS011;18669;53.356;-1.464;2023-04-19T01:03:38;16.98;;;8.23;;
29838;SDS011;18669;53.356;-1.464;2023-04-19T01:06:23;20.13;;;8.35;;
29838;SDS011;18669;53.356;-1.464;2023-04-19T01:09:11;25.15;;;9.40;;
29838;SDS011;18669;53.356;-1.464;2023-04-19T01:11:56;22.80;;;8.75;;
29838;SDS011;18669;53.356;-1.464;2023-04-19T01:14:41;19.05;;;8.60;;
29838;SDS011;18669;53.356;-1.464;2023-04-19T01:17:25;23.58;;;8.45;;
29838;SDS011;18669;53.356;-1.464;2023-04-19T01:20:11;25.90;;;9.43;;
29838;SDS011;18669;53.356;-1.464;2023-04-19T01:22:57;24.92;;;8.88;;
29838;SDS011;18669;53.356;-1.464;2023-04-19T01:25:41;26.35;;;9.57;;
29838;SDS011;18669;53.356;-1.464;2023-04-19T01:28:26;23.85;;;10.25;;
29838;SDS011;18669;53.356;-1.464;2023-04-19T01:31:11;31.20;;;11.20;;
29838;SDS011;18669;53.356;-1.464;2023-04-19T01:33:56;24.73;;;10.80;;
29838;SDS011;18669;53.356;-1.464;2023-04-19T01:36:41;23.92;;;10.13;;
29838;SDS011;18669;53.356;-1.464;2023-04-19T01:39:26;27.90;;;9.50;;
29838;SDS011;18669;53.356;-1.464;2023-04-19T01:42:11;25.83;;;9.88;;
29838;SDS011;18669;53.356;-1.464;2023-04-19T01:44:55;27.27;;;9.88;;
29838;SDS011;18669;53.356;-1.464;2023-04-19T01:47:40;22.90;;;8.98;;
29838;SDS011;18669;53.356;-1.464;2023-04-19T01:50:25;24.92;;;9.02;;
29838;SDS011;18669;53.356;-1.464;2023-04-19T01:53:10;23.10;;;9.60;;
29838;SDS011;18669;53.356;-1.464;2023-04-19T01:55:55;22.98;;;9.57;;
29838;SDS011;18669;53.356;-1.464;2023-04-19T01:58:40;29.77;;;9.82;;
29838;SDS011;18669;53.356;-1.464;2023-04-19T02:01:25;27.33;;;10.52;;
29838;SDS011;18669;53.356;-1.464;2023-04-19T02:04:10;23.83;;;9.45;;
29838;SDS011;18669;53.356;-1.464;2023-04-19T02:06:55;18.27;;;9.25;;
29838;SDS011;18669;53.356;-1.464;2023-04-19T02:09:40;25.23;;;9.07;;
29838;SDS011;18669;53.356;-1.464;2023-04-19T02:12:25;17.52;;;8.80;;
29838;SDS011;18669;53.356;-1.464;2023-04-19T02:15:14;24.05;;;10.00;;
29838;SDS011;18669;53.356;-1.464;2023-04-19T02:17:59;24.88;;;9.52;;
29838;SDS011;18669;53.356;-1.464;2023-04-19T02:20:44;25.30;;;9.38;;
29838;SDS011;18669;53.356;-1.464;2023-04-19T02:23:29;19.70;;;9.20;;
29838;SDS011;18669;53.356;-1.464;2023-04-19T02:26:14;14.10;;;8.50;;
29838;SDS011;18669;53.356;-1.464;2023-04-19T02:28:59;20.15;;;8.80;;
29838;SDS011;18669;53.356;-1.464;2023-04-19T02:31:44;24.15;;;9.07;;
29838;SDS011;18669;53.356;-1.464;2023-04-19T02:34:29;24.67;;;9.18;;
29838;SDS011;18669;53.356;-1.464;2023-04-19T02:37:14;15.77;;;8.88;;
29838;SDS011;18669;53.356;-1.464;2023-04-19T02:39:59;26.70;;;9.93;;
29838;SDS011;18669;53.356;-1.464;2023-04-19T02:42:44;20.55;;;8.85;;
29838;SDS011;18669;53.356;-1.464;2023-04-19T02:45:29;19.63;;;8.40;;
29838;SDS011;18669;53.356;-1.464;2023-04-19T02:48:14;20.17;;;9.25;;
29838;SDS011;18669;53.356;-1.464;2023-04-19T02:50:58;25.27;;;8.82;;
29838;SDS011;18669;53.356;-1.464;2023-04-19T02:53:44;23.17;;;8.73;;
29838;SDS011;18669;53.356;-1.464;2023-04-19T02:56:29;24.23;;;8.85;;
29838;SDS011;18669;53.356;-1.464;2023-04-19T02:59:13;30.67;;;9.43;;
29838;SDS011;18669;53.356;-1.464;2023-04-19T03:01:58;19.88;;;9.23;;
29838;SDS011;18669;53.356;-1.464;2023-04-19T03:04:43;17.75;;;8.38;;
29838;SDS011;18669;53.356;-1.464;2023-04-19T03:07:28;19.15;;;8.85;;
29838;SDS011;18669;53.356;-1.464;2023-04-19T03:10:13;19.50;;;8.73;;
29838;SDS011;18669;53.356;-1.464;2023-04-19T03:12:58;25.45;;;9.80;;
29838;SDS011;18669;53.356;-1.464;2023-04-19T03:15:43;22.50;;;9.38;;
29838;SDS011;18669;53.356;-1.464;2023-04-19T03:18:28;19.35;;;9.57;;
29838;SDS011;18669;53.356;-1.464;2023-04-19T03:21:13;28.67;;;8.50;;
29838;SDS011;18669;53.356;-1.464;2023-04-19T03:23:58;25.17;;;9.10;;
29838;SDS011;18669;53.356;-1.464;2023-04-19T03:26:43;16.90;;;8.25;;
29838;SDS011;18669;53.356;-1.464;2023-04-19T03:29:28;22.75;;;8.82;;
29838;SDS011;18669;53.356;-1.464;2023-04-19T03:32:13;26.67;;;9.20;;
29838;SDS011;18669;53.356;-1.464;2023-04-19T03:34:57;20.33;;;8.82;;
29838;SDS011;18669;53.356;-1.464;2023-04-19T03:37:42;30.00;;;9.68;;
29838;SDS011;18669;53.356;-1.464;2023-04-19T03:40:29;25.92;;;10.18;;
29838;SDS011;18669;53.356;-1.464;2023-04-19T03:43:16;28.65;;;10.70;;
29838;SDS011;18669;53.356;-1.464;2023-04-19T03:46:01;21.98;;;9.43;;
29838;SDS011;18669;53.356;-1.464;2023-04-19T03:48:46;25.90;;;10.77;;
29838;SDS011;18669;53.356;-1.464;2023-04-19T03:51:31;27.45;;;10.80;;
29838;SDS011;18669;53.356;-1.464;2023-04-19T03:54:16;32.28;;;11.38;;
29838;SDS011;18669;53.356;-1.464;2023-04-19T03:57:01;31.80;;;11.98;;
29838;SDS011;18669;53.356;-1.464;2023-04-19T03:59:45;29.45;;;11.27;;
29838;SDS011;18669;53.356;-1.464;2023-04-19T04:02:30;24.45;;;10.82;;
29838;SDS011;18669;53.356;-1.464;2023-04-19T04:05:15;20.33;;;10.15;;
29838;SDS011;18669;53.356;-1.464;2023-04-19T04:08:00;25.92;;;10.27;;
29838;SDS011;18669;53.356;-1.464;2023-04-19T04:10:45;25.50;;;10.05;;
29838;SDS011;18669;53.356;-1.464;2023-04-19T04:13:30;25.30;;;11.50;;
29838;SDS011;18669;53.356;-1.464;2023-04-19T04:16:15;28.55;;;10.07;;
29838;SDS011;18669;53.356;-1.464;2023-04-19T04:19:00;23.65;;;9.50;;
29838;SDS011;18669;53.356;-1.464;2023-04-19T04:21:45;26.48;;;9.75;;
29838;SDS011;18669;53.356;-1.464;2023-04-19T04:24:30;26.77;;;9.23;;
29838;SDS011;18669;53.356;-1.464;2023-04-19T04:27:16;25.55;;;9.60;;
29838;SDS011;18669;53.356;-1.464;2023-04-19T04:30:05;29.65;;;9.80;;
29838;SDS011;18669;53.356;-1.464;2023-04-19T04:32:50;26.52;;;9.63;;
29838;SDS011;18669;53.356;-1.464;2023-04-19T04:35:35;26.67;;;9.23;;
29838;SDS011;18669;53.356;-1.464;2023-04-19T04:38:20;19.10;;;9.77;;
29838;SDS011;18669;53.356;-1.464;2023-04-19T04:41:05;26.13;;;9.32;;
29838;SDS011;18669;53.356;-1.464;2023-04-19T04:43:50;25.25;;;9.30;;
29838;SDS011;18669;53.356;-1.464;2023-04-19T04:46:35;18.67;;;8.13;;
29838;SDS011;18669;53.356;-1.464;2023-04-19T04:49:19;24.35;;;9.43;;
29838;SDS011;18669;53.356;-1.464;2023-04-19T04:52:04;16.27;;;8.35;;
29838;SDS011;18669;53.356;-1.464;2023-04-19T04:54:49;21.55;;;9.15;;
29838;SDS011;18669;53.356;-1.464;2023-04-19T04:57:34;23.45;;;9.32;;
29838;SDS011;18669;53.356;-1.464;2023-04-19T05:00:19;27.25;;;9.90;;
29838;SDS011;18669;53.356;-1.464;2023-04-19T05:03:05;37.05;;;10.25;;
29838;SDS011;18669;53.356;-1.464;2023-04-19T05:05:50;27.55;;;10.07;;
29838;SDS011;18669;53.356;-1.464;2023-04-19T05:08:35;21.58;;;8.60;;
29838;SDS011;18669;53.356;-1.464;2023-04-19T05:11:20;19.25;;;9.10;;
29838;SDS011;18669;53.356;-1.464;2023-04-19T05:14:05;23.23;;;9.73;;
29838;SDS011;18669;53.356;-1.464;2023-04-19T05:16:49;24.15;;;9.52;;
29838;SDS011;18669;53.356;-1.464;2023-04-19T05:19:34;24.48;;;9.52;;
29838;SDS011;18669;53.356;-1.464;2023-04-19T05:22:20;22.23;;;9.57;;
29838;SDS011;18669;53.356;-1.464;2023-04-19T05:25:06;22.75;;;9.57;;
29838;SDS011;18669;53.356;-1.464;2023-04-19T05:27:53;25.20;;;10.05;;
29838;SDS011;18669;53.356;-1.464;2023-04-19T05:30:38;21.08;;;9.98;;
29838;SDS011;18669;53.356;-1.464;2023-04-19T05:33:23;24.17;;;9.15;;
29838;SDS011;18669;53.356;-1.464;2023-04-19T05:36:08;25.65;;;11.02;;
29838;SDS011;18669;53.356;-1.464;2023-04-19T05:38:53;20.92;;;9.07;;
29838;SDS011;18669;53.356;-1.464;2023-04-19T05:41:38;26.20;;;9.43;;
29838;SDS011;18669;53.356;-1.464;2023-04-19T05:44:23;28.67;;;10.70;;
29838;SDS011;18669;53.356;-1.464;2023-04-19T05:47:08;31.83;;;9.82;;
29838;SDS011;18669;53.356;-1.464;2023-04-19T05:49:53;29.00;;;9.85;;
29838;SDS011;18669;53.356;-1.464;2023-04-19T05:52:38;28.92;;;9.77;;
29838;SDS011;18669;53.356;-1.464;2023-04-19T05:55:22;27.95;;;9.85;;
29838;SDS011;18669;53.356;-1.464;2023-04-19T05:58:07;29.67;;;10.98;;
29838;SDS011;18669;53.356;-1.464;2023-04-19T06:00:52;21.45;;;9.35;;
29838;SDS011;18669;53.356;-1.464;2023-04-19T06:03:37;27.63;;;10.70;;
29838;SDS011;18669;53.356;-1.464;2023-04-19T06:06:22;25.23;;;10.65;;
29838;SDS011;18669;53.356;-1.464;2023-04-19T06:09:07;20.77;;;10.48;;
29838;SDS011;18669;53.356;-1.464;2023-04-19T06:11:52;33.15;;;11.65;;
29838;SDS011;18669;53.356;-1.464;2023-04-19T06:14:41;26.60;;;10.65;;
29838;SDS011;18669;53.356;-1.464;2023-04-19T06:17:26;25.15;;;10.88;;
29838;SDS011;18669;53.356;-1.464;2023-04-19T06:20:11;31.92;;;10.88;;
29838;SDS011;18669;53.356;-1.464;2023-04-19T06:22:56;28.67;;;11.10;;
29838;SDS011;18669;53.356;-1.464;2023-04-19T06:25:41;27.23;;;11.43;;
29838;SDS011;18669;53.356;-1.464;2023-04-19T06:28:26;18.90;;;9.95;;
29838;SDS011;18669;53.356;-1.464;2023-04-19T06:31:10;30.67;;;10.63;;
29838;SDS011;18669;53.356;-1.464;2023-04-19T06:33:55;28.45;;;11.05;;
29838;SDS011;18669;53.356;-1.464;2023-04-19T06:36:40;23.58;;;10.82;;
29838;SDS011;18669;53.356;-1.464;2023-04-19T06:39:25;28.17;;;10.77;;
29838;SDS011;18669;53.356;-1.464;2023-04-19T06:42:11;28.52;;;10.85;;
29838;SDS011;18669;53.356;-1.464;2023-04-19T06:44:55;28.90;;;12.25;;
29838;SDS011;18669;53.356;-1.464;2023-04-19T06:47:40;24.13;;;11.77;;
29838;SDS011;18669;53.356;-1.464;2023-04-19T06:50:25;37.42;;;13.80;;
29838;SDS011;18669;53.356;-1.464;2023-04-19T06:53:10;31.10;;;14.23;;
29838;SDS011;18669;53.356;-1.464;2023-04-19T06:55:57;31.17;;;12.45;;
29838;SDS011;18669;53.356;-1.464;2023-04-19T06:58:44;27.83;;;12.25;;
29838;SDS011;18669;53.356;-1.464;2023-04-19T07:01:29;23.17;;;12.90;;
29838;SDS011;18669;53.356;-1.464;2023-04-19T07:04:13;25.98;;;13.50;;
29838;SDS011;18669;53.356;-1.464;2023-04-19T07:06:59;34.67;;;15.07;;
29838;SDS011;18669;53.356;-1.464;2023-04-19T07:09:44;28.52;;;13.48;;
29838;SDS011;18669;53.356;-1.464;2023-04-19T07:12:29;28.15;;;15.00;;
29838;SDS011;18669;53.356;-1.464;2023-04-19T07:15:14;24.33;;;14.95;;
29838;SDS011;18669;53.356;-1.464;2023-04-19T07:18:00;37.20;;;15.35;;
29838;SDS011;18669;53.356;-1.464;2023-04-19T07:20:45;33.03;;;15.68;;
29838;SDS011;18669;53.356;-1.464;2023-04-19T07:23:31;34.65;;;17.13;;
29838;SDS011;18669;53.356;-1.464;2023-04-19T07:26:16;30.65;;;14.88;;
29838;SDS011;18669;53.356;-1.464;2023-04-19T07:29:01;29.92;;;14.68;;
29838;SDS011;18669;53.356;-1.464;2023-04-19T07:31:46;27.17;;;15.13;;
29838;SDS011;18669;53.356;-1.464;2023-04-19T07:34:31;36.97;;;15.48;;
29838;SDS011;18669;53.356;-1.464;2023-04-19T07:37:16;29.42;;;15.75;;
29838;SDS011;18669;53.356;-1.464;2023-04-19T07:40:01;35.45;;;17.20;;
29838;SDS011;18669;53.356;-1.464;2023-04-19T07:42:47;33.45;;;16.98;;
29838;SDS011;18669;53.356;-1.464;2023-04-19T07:45:32;29.90;;;16.33;;
29838;SDS011;18669;53.356;-1.464;2023-04-19T07:48:16;31.67;;;17.67;;
29838;SDS011;18669;53.356;-1.464;2023-04-19T07:51:11;35.50;;;17.15;;
29838;SDS011;18669;53.356;-1.464;2023-04-19T07:53:57;33.50;;;17.02;;
29838;SDS011;18669;53.356;-1.464;2023-04-19T07:56:42;27.90;;;17.55;;
29838;SDS011;18669;53.356;-1.464;2023-04-19T07:59:26;40.80;;;18.40;;
29838;SDS011;18669;53.356;-1.464;2023-04-19T08:02:11;33.50;;;20.00;;
29838;SDS011;18669;53.356;-1.464;2023-04-19T08:04:56;34.83;;;19.00;;
29838;SDS011;18669;53.356;-1.464;2023-04-19T08:07:41;32.90;;;18.27;;
29838;SDS011;18669;53.356;-1.464;2023-04-19T08:10:28;34.05;;;17.83;;
29838;SDS011;18669;53.356;-1.464;2023-04-19T08:13:13;36.33;;;17.98;;
29838;SDS011;18669;53.356;-1.464;2023-04-19T08:15:58;32.58;;;17.38;;
29838;SDS011;18669;53.356;-1.464;2023-04-19T08:18:43;29.15;;;16.40;;
29838;SDS011;18669;53.356;-1.464;2023-04-19T08:21:29;30.13;;;16.25;;
29838;SDS011;18669;53.356;-1.464;2023-04-19T08:24:14;28.00;;;15.82;;
29838;SDS011;18669;53.356;-1.464;2023-04-19T08:26:59;27.13;;;16.13;;
29838;SDS011;18669;53.356;-1.464;2023-04-19T08:29:45;32.38;;;16.20;;
29838;SDS011;18669;53.356;-1.464;2023-04-19T08:32:30;31.80;;;16.42;;
29838;SDS011;18669;53.356;-1.464;2023-04-19T08:35:15;29.38;;;14.57;;
29838;SDS011;18669;53.356;-1.464;2023-04-19T08:37:59;22.92;;;14.50;;
29838;SDS011;18669;53.356;-1.464;2023-04-19T08:40:45;34.95;;;15.18;;
29838;SDS011;18669;53.356;-1.464;2023-04-19T08:43:34;27.30;;;14.80;;
29838;SDS011;18669;53.356;-1.464;2023-04-19T08:46:20;31.38;;;14.68;;
29838;SDS011;18669;53.356;-1.464;2023-04-19T08:49:08;26.67;;;14.20;;
29838;SDS011;18669;53.356;-1.464;2023-04-19T08:51:54;28.83;;;13.98;;
29838;SDS011;18669;53.356;-1.464;2023-04-19T08:54:40;32.50;;;14.60;;
29838;SDS011;18669;53.356;-1.464;2023-04-19T08:57:28;33.70;;;17.05;;
29838;SDS011;18669;53.356;-1.464;2023-04-19T09:00:17;27.23;;;14.55;;
29838;SDS011;18669;53.356;-1.464;2023-04-19T09:03:03;32.95;;;12.88;;
29838;SDS011;18669;53.356;-1.464;2023-04-19T09:05:50;25.52;;;12.88;;
29838;SDS011;18669;53.356;-1.464;2023-04-19T09:08:35;33.75;;;12.73;;
29838;SDS011;18669;53.356;-1.464;2023-04-19T09:11:21;26.75;;;11.85;;
29838;SDS011;18669;53.356;-1.464;2023-04-19T09:14:10;21.92;;;10.93;;
29838;SDS011;18669;53.356;-1.464;2023-04-19T09:17:12;24.25;;;10.88;;
29838;SDS011;18669;53.356;-1.464;2023-04-19T09:19:58;25.20;;;11.52;;
29838;SDS011;18669;53.356;-1.464;2023-04-19T09:22:43;19.77;;;11.07;;
29838;SDS011;18669;53.356;-1.464;2023-04-19T09:25:57;20.52;;;10.80;;
29838;SDS011;18669;53.356;-1.464;2023-04-19T09:29:03;23.83;;;11.52;;
29838;SDS011;18669;53.356;-1.464;2023-04-19T09:31:56;28.30;;;11.13;;
29838;SDS011;18669;53.356;-1.464;2023-04-19T09:34:49;18.83;;;9.90;;
29838;SDS011;18669;53.356;-1.464;2023-04-19T09:37:35;25.25;;;11.13;;
29838;SDS011;18669;53.356;-1.464;2023-04-19T09:40:21;18.83;;;10.25;;
29838;SDS011;18669;53.356;-1.464;2023-04-19T09:43:07;20.55;;;9.88;;
29838;SDS011;18669;53.356;-1.464;2023-04-19T09:45:52;20.67;;;10.32;;
29838;SDS011;18669;53.356;-1.464;2023-04-19T09:48:37;20.63;;;10.45;;
29838;SDS011;18669;53.356;-1.464;2023-04-19T09:51:22;23.70;;;10.65;;
29838;SDS011;18669;53.356;-1.464;2023-04-19T09:54:08;21.65;;;10.55;;
29838;SDS011;18669;53.356;-1.464;2023-04-19T09:59:39;26.08;;;10.45;;
29838;SDS011;18669;53.356;-1.464;2023-04-19T10:02:25;22.75;;;9.80;;
29838;SDS011;18669;53.356;-1.464;2023-04-19T10:05:14;22.50;;;10.25;;
29838;SDS011;18669;53.356;-1.464;2023-04-19T10:08:00;23.33;;;11.50;;
29838;SDS011;18669;53.356;-1.464;2023-04-19T10:10:46;22.63;;;11.93;;
29838;SDS011;18669;53.356;-1.464;2023-04-19T10:13:36;23.15;;;11.02;;
29838;SDS011;18669;53.356;-1.464;2023-04-19T10:16:21;21.85;;;10.60;;
29838;SDS011;18669;53.356;-1.464;2023-04-19T10:19:12;22.58;;;11.20;;
29838;SDS011;18669;53.356;-1.464;2023-04-19T10:21:59;23.23;;;11.38;;
29838;SDS011;18669;53.356;-1.464;2023-04-19T10:27:54;27.92;;;10.70;;
29838;SDS011;18669;53.356;-1.464;2023-04-19T10:31:02;22.23;;;11.02;;
29838;SDS011;18669;53.356;-1.464;2023-04-19T10:33:47;23.98;;;10.88;;
29838;SDS011;18669;53.356;-1.464;2023-04-19T10:36:32;20.58;;;10.88;;
29838;SDS011;18669;53.356;-1.464;2023-04-19T10:40:03;30.08;;;10.32;;
29838;SDS011;18669;53.356;-1.464;2023-04-19T10:45:48;27.67;;;9.10;;
29838;SDS011;18669;53.356;-1.464;2023-04-19T10:48:34;20.38;;;8.57;;
29838;SDS011;18669;53.356;-1.464;2023-04-19T10:57:17;16.58;;;7.63;;
29838;SDS011;18669;53.356;-1.464;2023-04-19T11:00:21;18.33;;;7.90;;
29838;SDS011;18669;53.356;-1.464;2023-04-19T11:06:27;19.77;;;7.20;;
29838;SDS011;18669;53.356;-1.464;2023-04-19T11:09:20;17.35;;;7.25;;
29838;SDS011;18669;53.356;-1.464;2023-04-19T11:12:10;19.23;;;6.90;;
29838;SDS011;18669;53.356;-1.464;2023-04-19T11:14:58;17.27;;;6.85;;
29838;SDS011;18669;53.356;-1.464;2023-04-19T11:17:44;20.58;;;6.57;;
29838;SDS011;18669;53.356;-1.464;2023-04-19T11:20:35;19.33;;;6.90;;
29838;SDS011;18669;53.356;-1.464;2023-04-19T11:23:20;15.38;;;6.60;;
29838;SDS011;18669;53.356;-1.464;2023-04-19T11:26:10;18.40;;;6.82;;
29838;SDS011;18669;53.356;-1.464;2023-04-19T11:28:55;17.92;;;7.65;;
29838;SDS011;18669;53.356;-1.464;2023-04-19T11:31:42;14.57;;;6.97;;
29838;SDS011;18669;53.356;-1.464;2023-04-19T11:34:34;17.17;;;7.45;;
29838;SDS011;18669;53.356;-1.464;2023-04-19T11:37:21;16.20;;;7.13;;
29838;SDS011;18669;53.356;-1.464;2023-04-19T11:40:08;17.80;;;6.65;;
29838;SDS011;18669;53.356;-1.464;2023-04-19T11:42:57;15.10;;;6.10;;
29838;SDS011;18669;53.356;-1.464;2023-04-19T11:45:43;13.57;;;6.82;;
29838;SDS011;18669;53.356;-1.464;2023-04-19T11:48:28;16.42;;;6.90;;
29838;SDS011;18669;53.356;-1.464;2023-04-19T11:51:14;14.65;;;7.05;;
29838;SDS011;18669;53.356;-1.464;2023-04-19T11:54:00;11.93;;;5.95;;
29838;SDS011;18669;53.356;-1.464;2023-04-19T12:00:10;18.65;;;7.78;;
29838;SDS011;18669;53.356;-1.464;2023-04-19T12:02:58;14.55;;;6.40;;
29838;SDS011;18669;53.356;-1.464;2023-04-19T12:05:57;14.38;;;6.70;;
29838;SDS011;18669;53.356;-1.464;2023-04-19T12:08:48;16.15;;;6.05;;
29838;SDS011;18669;53.356;-1.464;2023-04-19T12:11:42;14.10;;;6.57;;
29838;SDS011;18669;53.356;-1.464;2023-04-19T12:14:29;17.50;;;6.32;;
29838;SDS011;18669;53.356;-1.464;2023-04-19T12:17:14;15.27;;;6.10;;
29838;SDS011;18669;53.356;-1.464;2023-04-19T12:20:00;15.50;;;5.57;;
29838;SDS011;18669;53.356;-1.464;2023-04-19T12:22:46;9.52;;;5.15;;
29838;SDS011;18669;53.356;-1.464;2023-04-19T12:25:31;13.18;;;4.93;;
29838;SDS011;18669;53.356;-1.464;2023-04-19T12:28:17;11.82;;;5.03;;
29838;SDS011;18669;53.356;-1.464;2023-04-19T12:31:01;17.42;;;5.53;;
29838;SDS011;18669;53.356;-1.464;2023-04-19T12:33:47;15.02;;;5.68;;
29838;SDS011;18669;53.356;-1.464;2023-04-19T12:36:32;10.88;;;5.03;;
29838;SDS011;18669;53.356;-1.464;2023-04-19T12:39:17;11.23;;;4.07;;
29838;SDS011;18669;53.356;-1.464;2023-04-19T12:42:02;19.42;;;4.68;;
29838;SDS011;18669;53.356;-1.464;2023-04-19T12:44:49;13.65;;;4.32;;
29838;SDS011;18669;53.356;-1.464;2023-04-19T12:47:33;8.77;;;4.25;;
29838;SDS011;18669;53.356;-1.464;2023-04-19T12:50:18;11.38;;;4.57;;
29838;SDS011;18669;53.356;-1.464;2023-04-19T12:53:03;12.90;;;4.20;;
29838;SDS011;18669;53.356;-1.464;2023-04-19T12:55:50;8.50;;;4.15;;
29838;SDS011;18669;53.356;-1.464;2023-04-19T12:58:35;8.80;;;4.22;;
29838;SDS011;18669;53.356;-1.464;2023-04-19T13:01:20;12.38;;;4.47;;
29838;SDS011;18669;53.356;-1.464;2023-04-19T13:04:05;7.57;;;3.70;;
29838;SDS011;18669;53.356;-1.464;2023-04-19T13:06:50;8.73;;;4.47;;
29838;SDS011;18669;53.356;-1.464;2023-04-19T13:09:36;20.38;;;5.18;;
29838;SDS011;18669;53.356;-1.464;2023-04-19T13:12:21;10.75;;;4.20;;
29838;SDS011;18669;53.356;-1.464;2023-04-19T13:15:07;14.63;;;4.72;;
29838;SDS011;18669;53.356;-1.464;2023-04-19T13:17:53;7.70;;;4.22;;
29838;SDS011;18669;53.356;-1.464;2023-04-19T13:20:38;11.13;;;3.78;;
29838;SDS011;18669;53.356;-1.464;2023-04-19T13:23:24;10.18;;;3.97;;
29838;SDS011;18669;53.356;-1.464;2023-04-19T13:26:09;12.43;;;4.32;;
29838;SDS011;18669;53.356;-1.464;2023-04-19T13:28:54;10.95;;;3.75;;
29838;SDS011;18669;53.356;-1.464;2023-04-19T13:31:39;10.63;;;3.60;;
29838;SDS011;18669;53.356;-1.464;2023-04-19T13:34:24;9.00;;;3.60;;
29838;SDS011;18669;53.356;-1.464;2023-04-19T13:37:09;11.60;;;3.75;;
29838;SDS011;18669;53.356;-1.464;2023-04-19T13:39:54;8.25;;;3.20;;
29838;SDS011;18669;53.356;-1.464;2023-04-19T13:42:39;6.30;;;3.17;;
29838;SDS011;18669;53.356;-1.464;2023-04-19T13:45:24;6.53;;;3.42;;
29838;SDS011;18669;53.356;-1.464;2023-04-19T13:48:09;4.57;;;3.10;;
29838;SDS011;18669;53.356;-1.464;2023-04-19T13:50:54;7.43;;;3.17;;
29838;SDS011;18669;53.356;-1.464;2023-04-19T13:53:40;11.82;;;2.83;;
29838;SDS011;18669;53.356;-1.464;2023-04-19T13:56:26;10.57;;;2.53;;
29838;SDS011;18669;53.356;-1.464;2023-04-19T13:59:12;7.03;;;2.88;;
29838;SDS011;18669;53.356;-1.464;2023-04-19T14:01:56;11.48;;;2.47;;
29838;SDS011;18669;53.356;-1.464;2023-04-19T14:04:41;10.70;;;2.20;;
29838;SDS011;18669;53.356;-1.464;2023-04-19T14:07:27;9.13;;;2.35;;
29838;SDS011;18669;53.356;-1.464;2023-04-19T14:10:12;7.18;;;2.35;;
29838;SDS011;18669;53.356;-1.464;2023-04-19T14:12:57;5.85;;;1.98;;
29838;SDS011;18669;53.356;-1.464;2023-04-19T14:15:42;10.27;;;2.05;;
29838;SDS011;18669;53.356;-1.464;2023-04-19T14:18:27;12.15;;;1.80;;
29838;SDS011;18669;53.356;-1.464;2023-04-19T14:21:13;12.10;;;2.20;;
29838;SDS011;18669;53.356;-1.464;2023-04-19T14:23:58;11.88;;;1.80;;
29838;SDS011;18669;53.356;-1.464;2023-04-19T14:26:43;8.75;;;1.63;;
29838;SDS011;18669;53.356;-1.464;2023-04-19T14:29:28;6.05;;;1.40;;
29838;SDS011;18669;53.356;-1.464;2023-04-19T14:32:14;4.07;;;1.50;;
29838;SDS011;18669;53.356;-1.464;2023-04-19T14:34:59;8.18;;;1.70;;
29838;SDS011;18669;53.356;-1.464;2023-04-19T14:37:45;4.68;;;1.60;;
29838;SDS011;18669;53.356;-1.464;2023-04-19T14:40:30;7.28;;;1.40;;
29838;SDS011;18669;53.356;-1.464;2023-04-19T14:43:15;3.78;;;1.38;;
29838;SDS011;18669;53.356;-1.464;2023-04-19T14:46:01;4.97;;;1.30;;
29838;SDS011;18669;53.356;-1.464;2023-04-19T14:48:46;2.70;;;1.50;;
29838;SDS011;18669;53.356;-1.464;2023-04-19T14:51:31;8.88;;;1.23;;
29838;SDS011;18669;53.356;-1.464;2023-04-19T14:54:16;3.97;;;1.15;;
29838;SDS011;18669;53.356;-1.464;2023-04-19T14:57:01;6.03;;;1.40;;
29838;SDS011;18669;53.356;-1.464;2023-04-19T14:59:47;9.00;;;1.30;;
29838;SDS011;18669;53.356;-1.464;2023-04-19T15:02:32;4.25;;;0.90;;
29838;SDS011;18669;53.356;-1.464;2023-04-19T15:05:21;15.32;;;1.50;;
29838;SDS011;18669;53.356;-1.464;2023-04-19T15:08:12;4.32;;;1.00;;
29838;SDS011;18669;53.356;-1.464;2023-04-19T15:10:57;10.90;;;1.10;;
29838;SDS011;18669;53.356;-1.464;2023-04-19T15:13:45;6.65;;;1.00;;
29838;SDS011;18669;53.356;-1.464;2023-04-19T15:16:31;9.45;;;1.30;;
29838;SDS011;18669;53.356;-1.464;2023-04-19T15:19:16;4.93;;;1.10;;
29838;SDS011;18669;53.356;-1.464;2023-04-19T15:22:01;7.72;;;1.42;;
29838;SDS011;18669;53.356;-1.464;2023-04-19T15:24:47;6.67;;;1.20;;
29838;SDS011;18669;53.356;-1.464;2023-04-19T15:27:32;4.72;;;1.40;;
29838;SDS011;18669;53.356;-1.464;2023-04-19T15:30:18;3.00;;;1.73;;
29838;SDS011;18669;53.356;-1.464;2023-04-19T15:33:03;4.65;;;1.30;;
29838;SDS011;18669;53.356;-1.464;2023-04-19T15:35:52;5.40;;;1.23;;
29838;SDS011;18669;53.356;-1.464;2023-04-19T15:38:39;7.43;;;1.52;;
29838;SDS011;18669;53.356;-1.464;2023-04-19T15:41:25;5.82;;;1.13;;
29838;SDS011;18669;53.356;-1.464;2023-04-19T15:44:11;9.93;;;1.67;;
29838;SDS011;18669;53.356;-1.464;2023-04-19T15:46:58;2.28;;;1.27;;
29838;SDS011;18669;53.356;-1.464;2023-04-19T15:49:42;5.03;;;1.30;;
29838;SDS011;18669;53.356;-1.464;2023-04-19T15:52:30;8.07;;;1.33;;
29838;SDS011;18669;53.356;-1.464;2023-04-19T15:55:15;4.10;;;1.20;;
29838;SDS011;18669;53.356;-1.464;2023-04-19T15:58:03;3.70;;;1.17;;
29838;SDS011;18669;53.356;-1.464;2023-04-19T16:00:49;3.78;;;1.10;;
29838;SDS011;18669;53.356;-1.464;2023-04-19T16:03:34;2.67;;;1.20;;
29838;SDS011;18669;53.356;-1.464;2023-04-19T16:06:19;6.00;;;1.40;;
29838;SDS011;18669;53.356;-1.464;2023-04-19T16:09:05;3.33;;;1.17;;
29838;SDS011;18669;53.356;-1.464;2023-04-19T16:11:51;4.85;;;1.42;;
29838;SDS011;18669;53.356;-1.464;2023-04-19T16:14:36;4.03;;;1.30;;
29838;SDS011;18669;53.356;-1.464;2023-04-19T16:17:21;4.05;;;1.88;;
29838;SDS011;18669;53.356;-1.464;2023-04-19T16:20:06;2.72;;;1.25;;
29838;SDS011;18669;53.356;-1.464;2023-04-19T16:22:52;5.60;;;1.73;;
29838;SDS011;18669;53.356;-1.464;2023-04-19T16:25:36;12.35;;;1.73;;
29838;SDS011;18669;53.356;-1.464;2023-04-19T16:28:21;10.07;;;1.27;;